createdAt,value
2022-08-10T00:02:12.293Z,1.80
2022-08-10T00:05:22.338Z,1.53
2022-08-10T00:08:31.064Z,1.83
2022-08-10T00:11:40.836Z,1.53
2022-08-10T00:14:49.389Z,1.57
2022-08-10T00:17:59.728Z,1.70
2022-08-10T00:21:10.316Z,1.50
2022-08-10T00:24:18.845Z,1.70
2022-08-10T00:27:59.030Z,1.83
2022-08-10T00:30:59.379Z,1.70
2022-08-10T00:34:07.570Z,2.20
2022-08-10T00:37:18.339Z,1.50
2022-08-10T00:40:37.123Z,1.73
2022-08-10T00:43:48.162Z,1.60
2022-08-10T00:46:56.625Z,1.70
2022-08-10T00:50:06.836Z,1.97
2022-08-10T00:53:16.050Z,1.83
2022-08-10T00:57:12.242Z,1.77
2022-08-10T00:59:59.613Z,2.00
2022-08-10T01:03:08.691Z,1.77
2022-08-10T01:06:39.725Z,1.80
2022-08-10T01:10:04.316Z,2.00
2022-08-10T01:13:27.727Z,2.03
2022-08-10T01:16:52.549Z,2.07
2022-08-10T01:20:10.659Z,2.20
2022-08-10T01:24:29.873Z,2.40
2022-08-10T01:27:56.844Z,2.27
2022-08-10T01:31:11.953Z,1.97
2022-08-10T01:34:26.578Z,2.10
2022-08-10T01:37:40.257Z,1.90
2022-08-10T01:40:56.166Z,1.87
2022-08-10T01:44:16.067Z,2.40
2022-08-10T01:47:54.687Z,2.20
2022-08-10T01:51:20.071Z,1.90
2022-08-10T01:54:31.188Z,1.77
2022-08-10T01:57:43.206Z,1.90
2022-08-10T02:00:55.880Z,2.00
2022-08-10T02:04:12.137Z,2.20
2022-08-10T02:07:26.047Z,1.93
2022-08-10T02:10:41.086Z,2.00
2022-08-10T02:13:51.952Z,2.10
2022-08-10T02:17:04.315Z,2.10
2022-08-10T02:20:19.661Z,2.20
2022-08-10T02:23:32.626Z,2.47
2022-08-10T02:26:42.948Z,2.20
2022-08-10T02:29:57.091Z,2.40
2022-08-10T02:33:06.941Z,2.07
2022-08-10T02:36:19.825Z,2.50
2022-08-10T02:39:29.366Z,2.10
2022-08-10T02:45:23.959Z,2.37
2022-08-10T02:46:29.745Z,2.00
2022-08-10T02:49:43.653Z,2.20
2022-08-10T02:53:03.443Z,2.47
2022-08-10T02:56:19.909Z,2.80
2022-08-10T02:59:38.494Z,1.90
2022-08-10T03:02:54.608Z,2.20
2022-08-10T03:06:11.750Z,1.73
2022-08-10T03:09:24.678Z,2.23
2022-08-10T03:12:38.788Z,2.30
2022-08-10T03:15:50.201Z,2.40
2022-08-10T03:19:03.485Z,2.23
2022-08-10T03:22:13.504Z,1.80
2022-08-10T03:25:27.413Z,2.20
2022-08-10T03:28:37.084Z,2.30
2022-08-10T03:31:46.781Z,2.53
2022-08-10T03:34:56.233Z,2.60
2022-08-10T03:38:05.186Z,2.10
2022-08-10T03:41:17.432Z,2.57
2022-08-10T03:44:33.522Z,2.03
2022-08-10T03:47:45.678Z,2.20
2022-08-10T03:50:55.763Z,2.20
2022-08-10T03:54:07.527Z,2.67
2022-08-10T03:57:17.632Z,2.17
2022-08-10T04:00:28.795Z,2.20
2022-08-10T04:03:37.143Z,2.30
2022-08-10T04:06:45.706Z,2.40
2022-08-10T04:09:56.454Z,2.50
2022-08-10T04:13:08.822Z,2.40
2022-08-10T04:16:17.304Z,2.57
2022-08-10T04:19:29.340Z,2.47
2022-08-10T04:22:39.234Z,2.60
2022-08-10T04:25:47.794Z,2.60
2022-08-10T04:28:57.457Z,2.17
2022-08-10T04:32:10.520Z,1.97
2022-08-10T04:35:21.786Z,2.40
2022-08-10T04:38:34.674Z,2.53
2022-08-10T04:41:46.314Z,2.20
2022-08-10T04:44:56.272Z,2.10
2022-08-10T04:48:06.622Z,2.17
2022-08-10T04:51:42.029Z,2.20
2022-08-10T04:54:50.554Z,2.53
2022-08-10T04:57:59.188Z,3.30
2022-08-10T05:01:07.691Z,2.67
2022-08-10T05:04:35.508Z,3.63
2022-08-10T05:07:53.881Z,5.73
2022-08-10T05:11:05.419Z,3.37
2022-08-10T05:14:13.987Z,2.87
2022-08-10T05:17:22.270Z,2.03
2022-08-10T05:20:32.529Z,2.30
2022-08-10T05:23:41.034Z,1.90
2022-08-10T05:26:55.213Z,2.10
2022-08-10T05:30:20.239Z,1.90
2022-08-10T05:33:28.559Z,2.20
2022-08-10T05:36:38.658Z,2.20
2022-08-10T05:39:50.402Z,2.17
2022-08-10T05:42:58.877Z,2.23
2022-08-10T05:46:16.854Z,2.17
2022-08-10T05:49:29.089Z,1.97
2022-08-10T05:52:38.860Z,2.17
2022-08-10T05:55:47.241Z,2.30
2022-08-10T05:58:56.032Z,2.30
2022-08-10T06:02:31.076Z,1.63
2022-08-10T06:05:38.559Z,2.40
2022-08-10T06:08:51.476Z,1.87
2022-08-10T06:12:27.102Z,1.77
2022-08-10T06:15:52.039Z,2.10
2022-08-10T06:18:59.935Z,1.73
2022-08-10T06:22:09.046Z,1.77
2022-08-10T06:26:08.342Z,1.53
2022-08-10T06:29:02.854Z,1.57
2022-08-10T06:32:14.783Z,1.27
2022-08-10T06:35:27.050Z,1.40
2022-08-10T06:38:37.247Z,1.70
2022-08-10T06:41:57.779Z,1.43
2022-08-10T06:45:26.742Z,1.20
2022-08-10T06:48:42.906Z,1.30
2022-08-10T06:51:57.677Z,1.30
2022-08-10T06:55:10.845Z,1.30
2022-08-10T06:58:26.828Z,1.30
2022-08-10T07:01:39.672Z,1.00
2022-08-10T07:04:54.506Z,1.53
2022-08-10T07:08:05.214Z,1.20
2022-08-10T07:11:16.236Z,1.30
2022-08-10T07:14:28.730Z,1.30
2022-08-10T07:17:39.800Z,1.50
2022-08-10T07:20:49.287Z,1.03
2022-08-10T07:24:00.863Z,1.10
2022-08-10T07:27:11.670Z,1.13
2022-08-10T07:30:21.929Z,1.23
2022-08-10T07:33:30.961Z,1.10
2022-08-10T07:36:43.910Z,1.47
2022-08-10T07:40:03.189Z,1.30
2022-08-10T07:43:15.382Z,1.30
2022-08-10T07:46:29.412Z,1.07
2022-08-10T07:49:43.310Z,1.30
2022-08-10T07:52:55.011Z,1.10
2022-08-10T07:56:20.857Z,1.20
2022-08-10T07:59:42.902Z,1.10
2022-08-10T08:02:56.577Z,1.30
2022-08-10T08:06:11.576Z,1.10
2022-08-10T08:09:22.405Z,1.30
2022-08-10T08:12:36.740Z,0.97
2022-08-10T08:16:19.903Z,1.10
2022-08-10T08:19:33.648Z,1.03
2022-08-10T08:24:07.236Z,0.80
2022-08-10T08:26:23.518Z,1.03
2022-08-10T08:29:36.877Z,1.00
2022-08-10T08:32:46.877Z,1.33
2022-08-10T08:35:58.147Z,1.00
2022-08-10T08:39:07.032Z,1.20
2022-08-10T08:42:36.653Z,0.83
2022-08-10T08:46:40.208Z,1.20
2022-08-10T08:50:16.264Z,1.07
2022-08-10T08:54:01.777Z,0.90
2022-08-10T08:57:49.443Z,0.80
2022-08-10T09:01:17.904Z,0.80
2022-08-10T09:04:48.382Z,0.80
2022-08-10T09:08:17.408Z,1.00
2022-08-10T09:11:46.592Z,0.80
2022-08-10T09:15:10.629Z,0.80
2022-08-10T09:18:50.677Z,0.50
2022-08-10T09:22:17.710Z,0.90
2022-08-10T09:25:35.809Z,0.80
2022-08-10T09:28:45.820Z,0.67
2022-08-10T09:36:14.701Z,0.80
2022-08-10T09:36:21.604Z,0.90
2022-08-10T09:40:56.954Z,0.73
2022-08-10T09:43:26.674Z,0.60
2022-08-10T09:47:14.318Z,0.77
2022-08-10T09:51:22.377Z,0.70
2022-08-10T09:54:22.408Z,0.70
2022-08-10T09:57:44.891Z,0.70
2022-08-10T10:01:07.268Z,0.80
2022-08-10T10:04:48.488Z,0.70
2022-08-10T10:08:10.507Z,0.80
2022-08-10T10:11:27.618Z,0.70
2022-08-10T10:15:10.157Z,0.67
2022-08-10T10:18:46.091Z,0.40
2022-08-10T10:22:14.968Z,0.40
2022-08-10T10:25:51.737Z,0.40
2022-08-10T10:29:37.525Z,0.60
2022-08-10T10:33:03.925Z,0.50
2022-08-10T10:36:15.641Z,1.77
2022-08-10T10:39:28.168Z,2.50
2022-08-10T10:42:50.422Z,1.17
2022-08-10T10:46:12.981Z,0.80
2022-08-10T10:49:39.958Z,0.97
2022-08-10T10:53:04.015Z,3.80
2022-08-10T10:56:27.454Z,2.73
2022-08-10T10:59:55.333Z,4.07
2022-08-10T11:03:28.041Z,2.70
2022-08-10T11:06:53.637Z,2.10
2022-08-10T11:10:31.954Z,7.20
2022-08-10T11:14:24.550Z,7.87
2022-08-10T11:17:27.075Z,2.47
2022-08-10T11:20:48.072Z,4.77
2022-08-10T11:24:48.930Z,2.93
2022-08-10T11:27:55.594Z,1.60
2022-08-10T11:31:17.245Z,0.80
2022-08-10T11:34:48.909Z,1.00
2022-08-10T11:38:34.660Z,0.80
2022-08-10T11:42:11.655Z,0.80
2022-08-10T11:45:31.360Z,0.60
2022-08-10T11:48:54.904Z,0.60
2022-08-10T11:52:14.047Z,1.00
2022-08-10T11:55:26.009Z,0.70
2022-08-10T11:58:58.925Z,0.73
2022-08-10T12:02:10.370Z,0.70
2022-08-10T12:05:53.075Z,0.60
2022-08-10T12:10:09.589Z,0.60
2022-08-10T12:12:31.733Z,1.37
2022-08-10T12:15:55.833Z,0.70
2022-08-10T12:19:15.049Z,0.90
2022-08-10T12:22:32.077Z,0.60
2022-08-10T12:25:58.662Z,0.70
2022-08-10T12:29:16.030Z,0.60
2022-08-10T12:32:36.872Z,0.60
2022-08-10T12:36:17.286Z,0.73
2022-08-10T12:39:32.443Z,0.63
2022-08-10T12:43:03.897Z,0.60
2022-08-10T12:46:36.317Z,0.53
2022-08-10T12:50:21.639Z,0.90
2022-08-10T12:53:51.591Z,0.67
2022-08-10T12:57:08.941Z,1.00
2022-08-10T13:00:19.378Z,0.50
2022-08-10T13:04:20.532Z,0.80
2022-08-10T13:07:03.308Z,0.87
2022-08-10T13:10:15.359Z,0.40
2022-08-10T13:13:35.994Z,0.70
2022-08-10T13:16:48.649Z,0.63
2022-08-10T13:20:12.970Z,0.70
2022-08-10T13:23:26.724Z,0.63
2022-08-10T13:27:22.714Z,0.50
2022-08-10T13:30:13.453Z,0.70
2022-08-10T13:34:03.568Z,0.83
2022-08-10T13:37:02.250Z,0.77
2022-08-10T13:40:16.101Z,0.63
2022-08-10T13:43:27.270Z,0.70
2022-08-10T13:46:40.383Z,0.47
2022-08-10T13:49:53.399Z,0.60
2022-08-10T13:53:13.994Z,0.87
2022-08-10T13:56:25.830Z,0.70
2022-08-10T14:00:36.106Z,0.77
2022-08-10T14:03:11.967Z,0.93
2022-08-10T14:06:29.494Z,0.50
2022-08-10T14:09:39.184Z,0.80
2022-08-10T14:12:51.379Z,0.80
2022-08-10T14:16:06.303Z,0.70
2022-08-10T14:19:20.887Z,0.53
2022-08-10T14:22:33.834Z,0.80
2022-08-10T14:25:53.479Z,0.70
2022-08-10T14:29:07.718Z,0.60
2022-08-10T14:32:21.771Z,0.87
2022-08-10T14:36:19.627Z,0.90
2022-08-10T14:39:08.228Z,0.70
2022-08-10T14:42:27.530Z,0.60
2022-08-10T14:45:40.924Z,1.03
2022-08-10T14:48:52.424Z,0.70
2022-08-10T14:52:06.031Z,0.70
2022-08-10T14:55:19.519Z,0.50
2022-08-10T14:58:32.953Z,0.70
2022-08-10T15:02:38.207Z,0.60
2022-08-10T15:05:18.843Z,0.67
2022-08-10T15:08:36.654Z,2.37
2022-08-10T15:12:13.081Z,0.60
2022-08-10T15:15:27.923Z,0.80
2022-08-10T15:18:43.251Z,0.60
2022-08-10T15:22:35.768Z,0.70
2022-08-10T15:25:57.670Z,0.80
2022-08-10T15:29:23.048Z,0.40
2022-08-10T15:32:57.611Z,0.60
2022-08-10T15:36:26.344Z,0.50
2022-08-10T15:40:24.052Z,0.60
2022-08-10T15:43:27.006Z,0.60
2022-08-10T15:46:45.586Z,0.60
2022-08-10T15:50:04.143Z,0.60
2022-08-10T15:53:29.110Z,0.50
2022-08-10T15:56:46.128Z,0.60
2022-08-10T16:00:05.153Z,0.60
2022-08-10T16:03:24.910Z,0.67
2022-08-10T16:06:40.356Z,0.30
2022-08-10T16:10:22.543Z,0.63
2022-08-10T16:14:00.109Z,0.50
2022-08-10T16:17:03.186Z,0.60
2022-08-10T16:20:12.655Z,0.50
2022-08-10T16:23:25.751Z,0.60
2022-08-10T16:26:39.911Z,0.70
2022-08-10T16:29:54.449Z,0.63
2022-08-10T16:33:08.853Z,1.40
2022-08-10T16:36:20.752Z,2.47
2022-08-10T16:39:59.253Z,1.00
2022-08-10T16:43:10.666Z,0.60
2022-08-10T16:46:22.383Z,0.67
2022-08-10T16:49:38.026Z,0.80
2022-08-10T16:52:50.578Z,0.50
2022-08-10T16:56:04.221Z,0.70
2022-08-10T16:59:17.748Z,0.60
2022-08-10T17:02:32.680Z,0.60
2022-08-10T17:06:10.321Z,0.60
2022-08-10T17:09:19.368Z,0.70
2022-08-10T17:12:32.580Z,0.60
2022-08-10T17:15:51.269Z,0.60
2022-08-10T17:18:59.982Z,0.70
2022-08-10T17:22:16.092Z,0.60
2022-08-10T17:25:46.186Z,0.80
2022-08-10T17:29:07.290Z,0.60
2022-08-10T17:32:25.124Z,0.63
2022-08-10T17:35:38.037Z,0.70
2022-08-10T17:38:52.876Z,0.60
2022-08-10T17:42:03.943Z,0.50
2022-08-10T17:45:47.841Z,0.60
2022-08-10T17:48:52.993Z,0.50
2022-08-10T17:52:05.814Z,0.70
2022-08-10T17:55:17.087Z,0.70
2022-08-10T17:58:28.338Z,0.50
2022-08-10T18:01:58.166Z,0.50
2022-08-10T18:05:11.110Z,0.50
2022-08-10T18:08:22.730Z,0.60
2022-08-10T18:11:42.331Z,0.83
2022-08-10T18:14:55.696Z,0.70
2022-08-10T18:18:06.368Z,0.60
2022-08-10T18:21:24.879Z,0.70
2022-08-10T18:24:40.052Z,0.60
2022-08-10T18:28:04.552Z,0.60
2022-08-10T18:31:21.251Z,0.77
2022-08-10T18:34:37.186Z,0.50
2022-08-10T18:37:51.353Z,0.67
2022-08-10T18:41:05.896Z,0.60
2022-08-10T18:44:20.448Z,0.80
2022-08-10T18:47:37.560Z,0.50
2022-08-10T18:50:53.282Z,0.60
2022-08-10T18:54:39.845Z,0.60
2022-08-10T18:58:28.939Z,0.50
2022-08-10T19:02:14.520Z,0.83
2022-08-10T19:05:49.075Z,0.60
2022-08-10T19:09:47.142Z,0.77
2022-08-10T19:13:00.298Z,0.80
2022-08-10T19:16:19.276Z,0.70
2022-08-10T19:19:41.998Z,0.80
2022-08-10T19:23:05.504Z,0.63
2022-08-10T19:26:43.817Z,0.77
2022-08-10T19:30:13.073Z,0.90
2022-08-10T19:33:37.073Z,0.70
2022-08-10T19:37:03.479Z,0.90
2022-08-10T19:40:44.604Z,0.80
2022-08-10T19:44:04.309Z,0.70
2022-08-10T19:47:26.081Z,0.90
2022-08-10T19:50:45.304Z,0.80
2022-08-10T19:54:10.162Z,0.80
2022-08-10T19:57:32.101Z,0.77
2022-08-10T20:00:54.939Z,0.77
2022-08-10T20:04:13.075Z,0.87
2022-08-10T20:07:30.691Z,0.80
2022-08-10T20:10:50.674Z,0.87
2022-08-10T20:14:21.197Z,1.07
2022-08-10T20:17:51.212Z,1.17
2022-08-10T20:21:13.621Z,1.00
2022-08-10T20:24:30.118Z,0.87
2022-08-10T20:27:59.212Z,0.97
2022-08-10T20:31:17.694Z,1.77
2022-08-10T20:34:34.366Z,1.13
2022-08-10T20:38:04.543Z,1.10
2022-08-10T20:41:29.804Z,1.00
2022-08-10T20:44:53.675Z,1.00
2022-08-10T20:48:17.895Z,1.20
2022-08-10T20:51:58.746Z,1.10
2022-08-10T20:55:12.431Z,0.90
2022-08-10T20:58:44.008Z,1.03
2022-08-10T21:02:12.826Z,1.00
2022-08-10T21:05:32.996Z,1.07
2022-08-10T21:08:54.190Z,0.90
2022-08-10T21:12:51.710Z,1.30
2022-08-10T21:16:20.270Z,1.13
2022-08-10T21:19:56.908Z,1.10
2022-08-10T21:23:08.621Z,1.23
2022-08-10T21:26:29.799Z,0.90
2022-08-10T21:29:55.995Z,0.67
2022-08-10T21:33:11.838Z,1.00
2022-08-10T21:36:30.416Z,0.90
2022-08-10T21:40:04.786Z,1.40
2022-08-10T21:43:50.443Z,0.93
2022-08-10T21:48:15.667Z,1.43
2022-08-10T21:52:01.162Z,0.90
2022-08-10T21:55:56.993Z,1.10
2022-08-10T21:59:34.989Z,1.30
2022-08-10T22:03:03.738Z,1.53
2022-08-10T22:06:34.464Z,1.27
2022-08-10T22:10:07.714Z,1.20
2022-08-10T22:13:37.944Z,1.20
2022-08-10T22:21:01.878Z,1.20
2022-08-10T22:24:48.326Z,1.20
2022-08-10T22:31:25.965Z,1.40
2022-08-10T22:31:26.217Z,1.20
2022-08-10T22:32:19.799Z,1.33
2022-08-10T22:36:18.789Z,1.20
2022-08-10T22:40:15.050Z,1.00
2022-08-10T22:43:51.701Z,1.20
2022-08-10T22:47:20.456Z,1.00
2022-08-10T22:50:36.597Z,1.20
2022-08-10T22:54:11.251Z,1.10
2022-08-10T22:58:03.793Z,1.20
2022-08-10T23:01:39.070Z,1.17
2022-08-10T23:04:56.640Z,1.43
2022-08-10T23:08:29.397Z,1.33
2022-08-10T23:11:43.236Z,1.60
2022-08-10T23:15:12.922Z,1.33
2022-08-10T23:18:52.087Z,1.60
2022-08-10T23:22:08.734Z,1.57
2022-08-10T23:25:28.304Z,1.37
2022-08-10T23:28:58.355Z,1.43
2022-08-10T23:32:10.751Z,1.33
2022-08-10T23:36:32.114Z,1.50
2022-08-10T23:39:26.488Z,1.53
2022-08-10T23:42:28.472Z,1.50
2022-08-10T23:45:53.675Z,1.70
2022-08-10T23:49:06.260Z,1.60
2022-08-10T23:52:22.487Z,1.33
2022-08-10T23:55:49.559Z,1.70
2022-08-10T23:59:00.219Z,1.80
